sensor_id;sensor_type;location;lat;lon;timestamp;pressure;altitude;pressure_sealevel;temperature;humidity
61645;BME280;47553;52.428;13.382;2022-07-06T00:01:47;101475.16;;;17.67;50.73
61645;BME280;47553;52.428;13.382;2022-07-06T00:03:49;101481.31;;;17.57;51.33
61645;BME280;47553;52.428;13.382;2022-07-06T00:05:56;101482.81;;;17.61;51.14
61645;BME280;47553;52.428;13.382;2022-07-06T00:07:57;101486.94;;;17.54;51.42
61645;BME280;47553;52.428;13.382;2022-07-06T00:09:59;101493.81;;;17.58;51.48
61645;BME280;47553;52.428;13.382;2022-07-06T00:12:00;101483.38;;;17.66;51.30
61645;BME280;47553;52.428;13.382;2022-07-06T00:14:04;101489.50;;;17.68;50.92
61645;BME280;47553;52.428;13.382;2022-07-06T00:16:05;101489.19;;;17.84;50.65
61645;BME280;47553;52.428;13.382;2022-07-06T00:18:07;101482.56;;;17.77;51.08
61645;BME280;47553;52.428;13.382;2022-07-06T00:20:09;101489.03;;;17.74;51.14
61645;BME280;47553;52.428;13.382;2022-07-06T00:22:11;101480.25;;;17.59;51.59
61645;BME280;47553;52.428;13.382;2022-07-06T00:24:12;101489.13;;;17.49;52.00
61645;BME280;47553;52.428;13.382;2022-07-06T00:26:14;101488.03;;;17.27;52.51
61645;BME280;47553;52.428;13.382;2022-07-06T00:28:16;101490.94;;;17.48;52.18
61645;BME280;47553;52.428;13.382;2022-07-06T00:30:19;101483.56;;;17.39;52.55
61645;BME280;47553;52.428;13.382;2022-07-06T00:32:20;101484.75;;;17.71;51.60
61645;BME280;47553;52.428;13.382;2022-07-06T00:34:22;101481.31;;;17.57;52.19
61645;BME280;47553;52.428;13.382;2022-07-06T00:36:24;101484.97;;;17.56;52.35
61645;BME280;47553;52.428;13.382;2022-07-06T00:38:25;101481.72;;;17.39;52.85
61645;BME280;47553;52.428;13.382;2022-07-06T00:40:27;101463.53;;;17.30;52.87
61645;BME280;47553;52.428;13.382;2022-07-06T00:42:28;101492.09;;;17.57;52.29
61645;BME280;47553;52.428;13.382;2022-07-06T00:44:30;101483.78;;;17.36;53.02
61645;BME280;47553;52.428;13.382;2022-07-06T00:46:33;101485.44;;;17.50;52.90
61645;BME280;47553;52.428;13.382;2022-07-06T00:48:34;101478.94;;;17.65;52.86
61645;BME280;47553;52.428;13.382;2022-07-06T00:50:36;101477.88;;;17.55;53.04
61645;BME280;47553;52.428;13.382;2022-07-06T00:52:38;101478.16;;;17.39;53.40
61645;BME280;47553;52.428;13.382;2022-07-06T00:54:41;101486.38;;;17.37;53.73
61645;BME280;47553;52.428;13.382;2022-07-06T00:56:42;101482.75;;;17.26;54.33
61645;BME280;47553;52.428;13.382;2022-07-06T00:58:44;101488.19;;;17.37;53.64
61645;BME280;47553;52.428;13.382;2022-07-06T01:00:46;101493.03;;;17.45;53.21
61645;BME280;47553;52.428;13.382;2022-07-06T01:02:49;101484.41;;;17.39;53.39
61645;BME280;47553;52.428;13.382;2022-07-06T01:04:51;101496.31;;;17.61;52.96
61645;BME280;47553;52.428;13.382;2022-07-06T01:06:53;101495.44;;;17.36;53.33
61645;BME280;47553;52.428;13.382;2022-07-06T01:08:55;101499.66;;;17.52;53.15
61645;BME280;47553;52.428;13.382;2022-07-06T01:10:56;101496.50;;;17.58;52.93
61645;BME280;47553;52.428;13.382;2022-07-06T01:12:58;101490.28;;;17.81;51.91
61645;BME280;47553;52.428;13.382;2022-07-06T01:15:00;101486.69;;;17.69;52.73
61645;BME280;47553;52.428;13.382;2022-07-06T01:17:02;101492.91;;;17.46;53.03
61645;BME280;47553;52.428;13.382;2022-07-06T01:19:05;101487.75;;;17.19;54.14
61645;BME280;47553;52.428;13.382;2022-07-06T01:21:10;101485.22;;;17.29;53.68
61645;BME280;47553;52.428;13.382;2022-07-06T01:23:12;101484.94;;;17.45;53.54
61645;BME280;47553;52.428;13.382;2022-07-06T01:25:14;101490.25;;;17.33;53.91
61645;BME280;47553;52.428;13.382;2022-07-06T01:27:16;101491.75;;;17.37;54.08
61645;BME280;47553;52.428;13.382;2022-07-06T01:29:18;101497.28;;;17.60;53.27
61645;BME280;47553;52.428;13.382;2022-07-06T01:31:21;101500.13;;;17.46;53.47
61645;BME280;47553;52.428;13.382;2022-07-06T01:33:22;101495.66;;;17.57;53.44
61645;BME280;47553;52.428;13.382;2022-07-06T01:35:26;101488.41;;;17.70;52.92
61645;BME280;47553;52.428;13.382;2022-07-06T01:37:29;101493.72;;;17.83;52.39
61645;BME280;47553;52.428;13.382;2022-07-06T01:39:30;101489.50;;;17.68;53.00
61645;BME280;47553;52.428;13.382;2022-07-06T01:41:32;101491.69;;;17.63;52.98
61645;BME280;47553;52.428;13.382;2022-07-06T01:43:33;101486.94;;;17.54;53.63
61645;BME280;47553;52.428;13.382;2022-07-06T01:45:35;101480.56;;;17.67;53.13
61645;BME280;47553;52.428;13.382;2022-07-06T01:47:37;101479.97;;;17.75;52.71
61645;BME280;47553;52.428;13.382;2022-07-06T01:49:38;101479.19;;;17.62;53.40
61645;BME280;47553;52.428;13.382;2022-07-06T01:51:40;101477.69;;;17.45;53.96
61645;BME280;47553;52.428;13.382;2022-07-06T01:53:43;101484.41;;;17.39;53.81
61645;BME280;47553;52.428;13.382;2022-07-06T01:55:45;101483.38;;;17.29;54.46
61645;BME280;47553;52.428;13.382;2022-07-06T01:57:46;101484.88;;;17.33;53.90
61645;BME280;47553;52.428;13.382;2022-07-06T01:59:48;101483.56;;;17.39;53.92
61645;BME280;47553;52.428;13.382;2022-07-06T02:01:49;101496.91;;;17.40;53.08
61645;BME280;47553;52.428;13.382;2022-07-06T02:03:51;101493.94;;;17.32;53.89
61645;BME280;47553;52.428;13.382;2022-07-06T02:05:53;101491.34;;;17.67;52.60
61645;BME280;47553;52.428;13.382;2022-07-06T02:07:54;101491.38;;;17.79;51.53
61645;BME280;47553;52.428;13.382;2022-07-06T02:09:57;101506.16;;;17.62;51.88
61645;BME280;47553;52.428;13.382;2022-07-06T02:11:59;101513.91;;;17.66;51.86
61645;BME280;47553;52.428;13.382;2022-07-06T02:14:00;101517.97;;;17.72;51.31
61645;BME280;47553;52.428;13.382;2022-07-06T02:16:03;101522.66;;;17.81;51.01
61645;BME280;47553;52.428;13.382;2022-07-06T02:18:04;101507.00;;;17.50;51.25
61645;BME280;47553;52.428;13.382;2022-07-06T02:20:07;101525.97;;;17.61;51.98
61645;BME280;47553;52.428;13.382;2022-07-06T02:22:09;101518.25;;;17.43;52.48
61645;BME280;47553;52.428;13.382;2022-07-06T02:24:10;101517.97;;;17.35;53.55
61645;BME280;47553;52.428;13.382;2022-07-06T02:26:13;101531.09;;;17.16;54.52
61645;BME280;47553;52.428;13.382;2022-07-06T02:28:15;101525.25;;;17.22;55.92
61645;BME280;47553;52.428;13.382;2022-07-06T02:30:16;101527.88;;;17.11;56.78
61645;BME280;47553;52.428;13.382;2022-07-06T02:32:18;101527.69;;;17.01;57.32
61645;BME280;47553;52.428;13.382;2022-07-06T02:34:20;101538.91;;;16.83;59.37
61645;BME280;47553;52.428;13.382;2022-07-06T02:36:21;101528.34;;;16.67;58.99
61645;BME280;47553;52.428;13.382;2022-07-06T02:38:23;101525.13;;;16.74;59.69
61645;BME280;47553;52.428;13.382;2022-07-06T02:40:25;101529.97;;;16.69;59.87
61645;BME280;47553;52.428;13.382;2022-07-06T02:42:28;101541.72;;;16.68;60.81
61645;BME280;47553;52.428;13.382;2022-07-06T02:44:29;101537.38;;;16.53;61.17
61645;BME280;47553;52.428;13.382;2022-07-06T02:46:31;101542.56;;;16.43;61.06
61645;BME280;47553;52.428;13.382;2022-07-06T02:48:33;101547.72;;;16.46;61.05
61645;BME280;47553;52.428;13.382;2022-07-06T02:50:34;101539.53;;;16.48;60.83
61645;BME280;47553;52.428;13.382;2022-07-06T02:52:36;101534.59;;;16.55;60.67
61645;BME280;47553;52.428;13.382;2022-07-06T02:54:41;101543.41;;;16.44;61.36
61645;BME280;47553;52.428;13.382;2022-07-06T02:56:43;101543.63;;;16.41;62.14
61645;BME280;47553;52.428;13.382;2022-07-06T02:58:46;101550.84;;;16.40;61.61
61645;BME280;47553;52.428;13.382;2022-07-06T03:00:47;101549.34;;;16.36;62.18
61645;BME280;47553;52.428;13.382;2022-07-06T03:02:49;101545.34;;;16.42;62.14
61645;BME280;47553;52.428;13.382;2022-07-06T03:04:51;101547.63;;;16.48;61.84
61645;BME280;47553;52.428;13.382;2022-07-06T03:06:52;101557.84;;;16.56;61.19
61645;BME280;47553;52.428;13.382;2022-07-06T03:08:54;101550.84;;;16.40;61.92
61645;BME280;47553;52.428;13.382;2022-07-06T03:10:55;101567.53;;;16.33;61.83
61645;BME280;47553;52.428;13.382;2022-07-06T03:12:57;101559.03;;;16.26;63.44
61645;BME280;47553;52.428;13.382;2022-07-06T03:15:00;101562.56;;;16.27;63.80
61645;BME280;47553;52.428;13.382;2022-07-06T03:17:02;101553.41;;;16.17;64.27
61645;BME280;47553;52.428;13.382;2022-07-06T03:19:04;101557.81;;;16.18;64.97
61645;BME280;47553;52.428;13.382;2022-07-06T03:21:05;101560.09;;;16.24;64.51
61645;BME280;47553;52.428;13.382;2022-07-06T03:23:07;101561.22;;;16.07;66.56
61645;BME280;47553;52.428;13.382;2022-07-06T03:25:08;101554.59;;;16.12;67.42
61645;BME280;47553;52.428;13.382;2022-07-06T03:27:10;101559.00;;;16.13;65.28
61645;BME280;47553;52.428;13.382;2022-07-06T03:29:12;101561.28;;;16.20;65.63
61645;BME280;47553;52.428;13.382;2022-07-06T03:31:15;101552.88;;;16.11;65.43
61645;BME280;47553;52.428;13.382;2022-07-06T03:33:16;101558.91;;;16.15;65.52
61645;BME280;47553;52.428;13.382;2022-07-06T03:35:18;101558.09;;;16.00;66.12
61645;BME280;47553;52.428;13.382;2022-07-06T03:37:20;101559.25;;;15.96;65.54
61645;BME280;47553;52.428;13.382;2022-07-06T03:39:21;101554.13;;;16.06;65.85
61645;BME280;47553;52.428;13.382;2022-07-06T03:41:23;101554.00;;;16.07;65.38
61645;BME280;47553;52.428;13.382;2022-07-06T03:43:24;101558.09;;;16.00;65.13
61645;BME280;47553;52.428;13.382;2022-07-06T03:45:26;101549.53;;;16.21;63.68
61645;BME280;47553;52.428;13.382;2022-07-06T03:47:29;101549.88;;;16.29;63.35
61645;BME280;47553;52.428;13.382;2022-07-06T03:49:30;101550.50;;;16.20;64.09
61645;BME280;47553;52.428;13.382;2022-07-06T03:51:32;101555.56;;;16.11;64.16
61645;BME280;47553;52.428;13.382;2022-07-06T03:53:33;101552.44;;;16.18;63.74
61645;BME280;47553;52.428;13.382;2022-07-06T03:55:35;101557.66;;;16.06;63.94
61645;BME280;47553;52.428;13.382;2022-07-06T03:57:37;101556.34;;;15.99;65.07
61645;BME280;47553;52.428;13.382;2022-07-06T03:59:38;101557.75;;;15.92;65.67
61645;BME280;47553;52.428;13.382;2022-07-06T04:01:40;101555.16;;;15.91;65.81
61645;BME280;47553;52.428;13.382;2022-07-06T04:03:43;101558.50;;;15.94;66.30
61645;BME280;47553;52.428;13.382;2022-07-06T04:05:45;101553.78;;;15.98;66.72
61645;BME280;47553;52.428;13.382;2022-07-06T04:07:46;101553.53;;;15.88;66.42
61645;BME280;47553;52.428;13.382;2022-07-06T04:09:48;101550.72;;;16.17;65.01
61645;BME280;47553;52.428;13.382;2022-07-06T04:11:50;101556.31;;;16.13;65.68
61645;BME280;47553;52.428;13.382;2022-07-06T04:13:51;101555.88;;;16.20;65.29
61645;BME280;47553;52.428;13.382;2022-07-06T04:15:53;101558.03;;;16.14;65.14
61645;BME280;47553;52.428;13.382;2022-07-06T04:17:54;101559.13;;;16.25;65.60
61645;BME280;47553;52.428;13.382;2022-07-06T04:19:57;101560.44;;;16.44;64.96
61645;BME280;47553;52.428;13.382;2022-07-06T04:21:59;101564.84;;;16.45;64.21
61645;BME280;47553;52.428;13.382;2022-07-06T04:24:01;101555.03;;;16.44;64.56
61645;BME280;47553;52.428;13.382;2022-07-06T04:26:02;101549.88;;;16.41;65.18
61645;BME280;47553;52.428;13.382;2022-07-06T04:28:04;101553.66;;;16.39;65.32
61645;BME280;47553;52.428;13.382;2022-07-06T04:30:07;101550.09;;;16.51;63.98
61645;BME280;47553;52.428;13.382;2022-07-06T04:32:08;101546.31;;;16.41;65.31
61645;BME280;47553;52.428;13.382;2022-07-06T04:34:10;101554.41;;;16.41;64.24
61645;BME280;47553;52.428;13.382;2022-07-06T04:36:13;101552.22;;;16.21;65.17
61645;BME280;47553;52.428;13.382;2022-07-06T04:38:15;101558.38;;;16.23;66.19
61645;BME280;47553;52.428;13.382;2022-07-06T04:40:17;101554.38;;;16.15;65.80
61645;BME280;47553;52.428;13.382;2022-07-06T04:42:19;101562.38;;;16.55;63.57
61645;BME280;47553;52.428;13.382;2022-07-06T04:44:21;101556.44;;;16.50;64.54
61645;BME280;47553;52.428;13.382;2022-07-06T04:46:22;101548.53;;;17.23;63.04
61645;BME280;47553;52.428;13.382;2022-07-06T04:48:24;101549.22;;;17.98;59.10
61645;BME280;47553;52.428;13.382;2022-07-06T04:50:26;101552.25;;;18.29;56.59
61645;BME280;47553;52.428;13.382;2022-07-06T04:52:29;101555.69;;;18.55;55.23
61645;BME280;47553;52.428;13.382;2022-07-06T04:54:31;101550.41;;;18.87;54.95
61645;BME280;47553;52.428;13.382;2022-07-06T04:56:33;101560.00;;;19.02;53.86
61645;BME280;47553;52.428;13.382;2022-07-06T04:58:34;101559.75;;;18.60;54.34
61645;BME280;47553;52.428;13.382;2022-07-06T05:00:36;101557.78;;;18.27;55.63
61645;BME280;47553;52.428;13.382;2022-07-06T05:02:37;101562.41;;;17.79;56.35
61645;BME280;47553;52.428;13.382;2022-07-06T05:04:39;101562.03;;;17.60;57.01
61645;BME280;47553;52.428;13.382;2022-07-06T05:06:41;101569.03;;;17.50;58.34
61645;BME280;47553;52.428;13.382;2022-07-06T05:08:44;101568.22;;;17.36;59.10
61645;BME280;47553;52.428;13.382;2022-07-06T05:10:45;101567.28;;;17.25;58.39
61645;BME280;47553;52.428;13.382;2022-07-06T05:12:47;101567.22;;;17.14;59.10
61645;BME280;47553;52.428;13.382;2022-07-06T05:14:48;101574.31;;;17.27;59.49
61645;BME280;47553;52.428;13.382;2022-07-06T05:16:50;101582.97;;;17.43;57.72
61645;BME280;47553;52.428;13.382;2022-07-06T05:18:51;101578.84;;;17.51;56.86
61645;BME280;47553;52.428;13.382;2022-07-06T05:20:53;101561.34;;;17.93;55.54
61645;BME280;47553;52.428;13.382;2022-07-06T05:22:55;101560.81;;;18.12;54.77
61645;BME280;47553;52.428;13.382;2022-07-06T05:24:57;101564.53;;;18.57;53.60
61645;BME280;47553;52.428;13.382;2022-07-06T05:26:59;101564.16;;;18.95;52.62
61645;BME280;47553;52.428;13.382;2022-07-06T05:29:01;101563.41;;;19.49;51.29
61645;BME280;47553;52.428;13.382;2022-07-06T05:31:02;101555.66;;;19.55;50.07
61645;BME280;47553;52.428;13.382;2022-07-06T05:33:04;101556.88;;;19.94;49.85
61645;BME280;47553;52.428;13.382;2022-07-06T05:35:07;101561.19;;;20.18;49.02
61645;BME280;47553;52.428;13.382;2022-07-06T05:37:28;101566.13;;;20.24;48.19
61645;BME280;47553;52.428;13.382;2022-07-06T05:39:30;101561.94;;;20.20;47.86
61645;BME280;47553;52.428;13.382;2022-07-06T05:41:33;101563.28;;;20.25;46.49
61645;BME280;47553;52.428;13.382;2022-07-06T05:43:35;101557.03;;;20.14;46.43
61645;BME280;47553;52.428;13.382;2022-07-06T05:45:36;101558.94;;;20.34;46.71
61645;BME280;47553;52.428;13.382;2022-07-06T05:47:38;101560.66;;;20.35;46.87
61645;BME280;47553;52.428;13.382;2022-07-06T05:49:39;101548.88;;;20.67;46.19
61645;BME280;47553;52.428;13.382;2022-07-06T05:51:41;101560.28;;;21.01;45.75
61645;BME280;47553;52.428;13.382;2022-07-06T05:53:42;101559.50;;;21.10;45.54
61645;BME280;47553;52.428;13.382;2022-07-06T05:55:44;101551.50;;;20.78;46.83
61645;BME280;47553;52.428;13.382;2022-07-06T05:57:47;101556.66;;;21.11;45.34
61645;BME280;47553;52.428;13.382;2022-07-06T05:59:49;101547.59;;;21.01;44.87
61645;BME280;47553;52.428;13.382;2022-07-06T06:01:50;101553.56;;;21.26;45.05
61645;BME280;47553;52.428;13.382;2022-07-06T06:03:52;101550.09;;;21.14;44.31
61645;BME280;47553;52.428;13.382;2022-07-06T06:05:53;101549.59;;;21.30;44.23
61645;BME280;47553;52.428;13.382;2022-07-06T06:07:55;101551.78;;;21.05;44.36
61645;BME280;47553;52.428;13.382;2022-07-06T06:09:56;101549.59;;;21.30;43.28
61645;BME280;47553;52.428;13.382;2022-07-06T06:11:58;101565.31;;;21.36;42.72
61645;BME280;47553;52.428;13.382;2022-07-06T06:14:01;101560.22;;;21.52;43.25
61645;BME280;47553;52.428;13.382;2022-07-06T06:16:03;101557.06;;;21.47;43.44
61645;BME280;47553;52.428;13.382;2022-07-06T06:18:05;101554.81;;;21.71;43.09
61645;BME280;47553;52.428;13.382;2022-07-06T06:20:08;101557.34;;;21.44;42.22
61645;BME280;47553;52.428;13.382;2022-07-06T06:22:10;101554.63;;;21.04;43.64
61645;BME280;47553;52.428;13.382;2022-07-06T06:24:11;101554.09;;;21.10;44.04
61645;BME280;47553;52.428;13.382;2022-07-06T06:26:13;101554.91;;;21.41;44.28
61645;BME280;47553;52.428;13.382;2022-07-06T06:28:14;101563.91;;;21.41;43.67
61645;BME280;47553;52.428;13.382;2022-07-06T06:30:17;101557.97;;;21.76;43.60
61645;BME280;47553;52.428;13.382;2022-07-06T06:32:19;101568.22;;;21.63;43.36
61645;BME280;47553;52.428;13.382;2022-07-06T06:34:20;101565.47;;;21.34;43.95
61645;BME280;47553;52.428;13.382;2022-07-06T06:36:22;101567.22;;;21.14;43.63
61645;BME280;47553;52.428;13.382;2022-07-06T06:38:24;101571.66;;;21.15;44.51
61645;BME280;47553;52.428;13.382;2022-07-06T06:40:26;101566.69;;;20.90;44.11
61645;BME280;47553;52.428;13.382;2022-07-06T06:42:27;101566.69;;;21.20;43.97
61645;BME280;47553;52.428;13.382;2022-07-06T06:44:29;101562.97;;;20.61;45.14
61645;BME280;47553;52.428;13.382;2022-07-06T06:46:32;101565.72;;;21.01;44.77
61645;BME280;47553;52.428;13.382;2022-07-06T06:48:33;101568.19;;;21.34;43.57
61645;BME280;47553;52.428;13.382;2022-07-06T06:50:35;101568.19;;;21.34;44.74
61645;BME280;47553;52.428;13.382;2022-07-06T06:52:36;101567.84;;;21.28;44.40
61645;BME280;47553;52.428;13.382;2022-07-06T06:54:41;101569.56;;;20.98;45.14
61645;BME280;47553;52.428;13.382;2022-07-06T06:56:43;101568.47;;;20.80;45.04
61645;BME280;47553;52.428;13.382;2022-07-06T06:58:44;101564.75;;;20.30;45.92
61645;BME280;47553;52.428;13.382;2022-07-06T07:01:06;101570.59;;;19.82;46.60
61645;BME280;47553;52.428;13.382;2022-07-06T07:03:09;101575.94;;;19.61;48.32
61645;BME280;47553;52.428;13.382;2022-07-06T07:05:10;101572.97;;;19.64;47.55
61645;BME280;47553;52.428;13.382;2022-07-06T07:07:12;101579.66;;;19.49;47.59
61645;BME280;47553;52.428;13.382;2022-07-06T07:09:13;101585.78;;;19.62;47.76
61645;BME280;47553;52.428;13.382;2022-07-06T07:11:15;101581.81;;;19.66;48.45
61645;BME280;47553;52.428;13.382;2022-07-06T07:13:17;101577.34;;;19.76;48.39
61645;BME280;47553;52.428;13.382;2022-07-06T07:15:19;101585.66;;;19.63;46.57
61645;BME280;47553;52.428;13.382;2022-07-06T07:17:20;101590.44;;;19.60;46.05
61645;BME280;47553;52.428;13.382;2022-07-06T07:19:23;101579.59;;;19.71;46.24
61645;BME280;47553;52.428;13.382;2022-07-06T07:21:24;101584.28;;;19.69;46.63
61645;BME280;47553;52.428;13.382;2022-07-06T07:23:26;101586.28;;;19.56;45.41
61645;BME280;47553;52.428;13.382;2022-07-06T07:25:28;101581.88;;;19.44;46.33
61645;BME280;47553;52.428;13.382;2022-07-06T07:27:30;101583.59;;;19.34;47.18
61645;BME280;47553;52.428;13.382;2022-07-06T07:29:31;101586.78;;;19.05;48.63
61645;BME280;47553;52.428;13.382;2022-07-06T07:31:33;101579.78;;;19.36;48.84
61645;BME280;47553;52.428;13.382;2022-07-06T07:33:34;101575.97;;;19.27;48.99
61645;BME280;47553;52.428;13.382;2022-07-06T07:35:38;101578.50;;;19.62;48.80
61645;BME280;47553;52.428;13.382;2022-07-06T07:37:40;101561.25;;;19.86;47.61
61645;BME280;47553;52.428;13.382;2022-07-06T07:39:41;101571.81;;;19.89;46.20
61645;BME280;47553;52.428;13.382;2022-07-06T07:41:43;101578.63;;;19.61;45.96
61645;BME280;47553;52.428;13.382;2022-07-06T07:43:45;101581.13;;;19.30;47.11
61645;BME280;47553;52.428;13.382;2022-07-06T07:45:47;101588.78;;;19.14;46.74
61645;BME280;47553;52.428;13.382;2022-07-06T07:47:48;101588.25;;;19.54;46.83
61645;BME280;47553;52.428;13.382;2022-07-06T07:49:50;101592.91;;;19.63;45.42
61645;BME280;47553;52.428;13.382;2022-07-06T07:51:53;101585.72;;;19.84;43.64
61645;BME280;47553;52.428;13.382;2022-07-06T07:53:55;101590.75;;;19.89;43.17
61645;BME280;47553;52.428;13.382;2022-07-06T07:55:56;101584.69;;;19.97;42.67
61645;BME280;47553;52.428;13.382;2022-07-06T07:57:58;101583.69;;;20.30;40.21
61645;BME280;47553;52.428;13.382;2022-07-06T07:59:59;101582.38;;;20.45;39.17
61645;BME280;47553;52.428;13.382;2022-07-06T08:02:01;101591.69;;;20.52;39.07
61645;BME280;47553;52.428;13.382;2022-07-06T08:04:03;101588.34;;;20.60;40.32
61645;BME280;47553;52.428;13.382;2022-07-06T08:06:05;101593.34;;;20.43;38.64
61645;BME280;47553;52.428;13.382;2022-07-06T08:08:08;101592.16;;;20.36;39.06
61645;BME280;47553;52.428;13.382;2022-07-06T08:10:10;101591.31;;;20.77;39.40
61645;BME280;47553;52.428;13.382;2022-07-06T08:12:12;101598.38;;;21.20;39.15
61645;BME280;47553;52.428;13.382;2022-07-06T08:14:13;101590.94;;;21.62;38.62
61645;BME280;47553;52.428;13.382;2022-07-06T08:16:15;101585.72;;;21.99;38.31
61645;BME280;47553;52.428;13.382;2022-07-06T08:18:17;101598.28;;;21.81;38.16
61645;BME280;47553;52.428;13.382;2022-07-06T08:22:20;101590.00;;;21.02;39.96
61645;BME280;47553;52.428;13.382;2022-07-06T08:24:23;101591.53;;;20.65;41.18
61645;BME280;47553;52.428;13.382;2022-07-06T08:26:25;101597.84;;;20.33;42.24
61645;BME280;47553;52.428;13.382;2022-07-06T08:28:26;101598.75;;;20.22;41.70
61645;BME280;47553;52.428;13.382;2022-07-06T08:30:29;101600.09;;;19.96;42.12
61645;BME280;47553;52.428;13.382;2022-07-06T08:32:30;101592.31;;;20.03;42.31
61645;BME280;47553;52.428;13.382;2022-07-06T08:34:52;101588.53;;;20.26;42.42
61645;BME280;47553;52.428;13.382;2022-07-06T08:36:53;101598.09;;;20.30;41.92
61645;BME280;47553;52.428;13.382;2022-07-06T08:38:55;101595.25;;;20.00;42.64
61645;BME280;47553;52.428;13.382;2022-07-06T08:40:58;101593.28;;;20.02;42.72
61645;BME280;47553;52.428;13.382;2022-07-06T08:43:00;101606.97;;;20.00;42.79
61645;BME280;47553;52.428;13.382;2022-07-06T08:45:04;101602.66;;;19.98;43.36
61645;BME280;47553;52.428;13.382;2022-07-06T08:47:06;101603.81;;;19.73;43.68
61645;BME280;47553;52.428;13.382;2022-07-06T08:49:08;101601.50;;;19.68;43.94
61645;BME280;47553;52.428;13.382;2022-07-06T08:51:14;101597.25;;;19.98;42.22
61645;BME280;47553;52.428;13.382;2022-07-06T08:53:17;101593.03;;;20.05;41.22
61645;BME280;47553;52.428;13.382;2022-07-06T08:55:20;101590.03;;;19.87;41.42
61645;BME280;47553;52.428;13.382;2022-07-06T08:57:24;101593.13;;;19.82;41.46
61645;BME280;47553;52.428;13.382;2022-07-06T08:59:26;101601.72;;;19.76;41.61
61645;BME280;47553;52.428;13.382;2022-07-06T09:01:28;101595.84;;;19.60;40.59
61645;BME280;47553;52.428;13.382;2022-07-06T09:03:30;101586.41;;;19.98;40.38
61645;BME280;47553;52.428;13.382;2022-07-06T09:05:32;101587.69;;;19.82;40.40
61645;BME280;47553;52.428;13.382;2022-07-06T09:07:36;101601.03;;;19.63;40.90
61645;BME280;47553;52.428;13.382;2022-07-06T09:09:59;101601.53;;;19.23;41.04
61645;BME280;47553;52.428;13.382;2022-07-06T09:12:01;101600.19;;;19.18;41.49
61645;BME280;47553;52.428;13.382;2022-07-06T09:14:06;101610.88;;;18.97;41.68
61645;BME280;47553;52.428;13.382;2022-07-06T09:16:11;101603.00;;;18.83;41.52
61645;BME280;47553;52.428;13.382;2022-07-06T09:18:36;101612.78;;;18.61;42.24
61645;BME280;47553;52.428;13.382;2022-07-06T09:20:40;101605.84;;;18.46;42.60
61645;BME280;47553;52.428;13.382;2022-07-06T09:22:42;101614.94;;;18.45;43.14
61645;BME280;47553;52.428;13.382;2022-07-06T09:24:43;101619.75;;;18.29;43.44
61645;BME280;47553;52.428;13.382;2022-07-06T09:26:47;101616.66;;;18.46;43.24
61645;BME280;47553;52.428;13.382;2022-07-06T09:28:50;101613.44;;;18.41;43.30
61645;BME280;47553;52.428;13.382;2022-07-06T09:30:55;101612.66;;;18.63;42.50
61645;BME280;47553;52.428;13.382;2022-07-06T09:33:02;101614.28;;;18.77;41.89
61645;BME280;47553;52.428;13.382;2022-07-06T09:35:04;101611.22;;;19.04;41.10
61645;BME280;47553;52.428;13.382;2022-07-06T09:37:06;101601.69;;;19.11;38.78
61645;BME280;47553;52.428;13.382;2022-07-06T09:39:15;101613.34;;;19.22;38.73
61645;BME280;47553;52.428;13.382;2022-07-06T09:41:30;101615.31;;;19.31;37.53
61645;BME280;47553;52.428;13.382;2022-07-06T09:43:32;101615.19;;;19.33;36.81
61645;BME280;47553;52.428;13.382;2022-07-06T09:45:34;101606.59;;;19.39;35.64
61645;BME280;47553;52.428;13.382;2022-07-06T09:47:37;101606.72;;;19.49;36.07
61645;BME280;47553;52.428;13.382;2022-07-06T09:49:39;101610.13;;;19.62;36.72
61645;BME280;47553;52.428;13.382;2022-07-06T09:51:41;101607.78;;;19.57;36.75
61645;BME280;47553;52.428;13.382;2022-07-06T09:53:42;101608.53;;;19.59;35.70
61645;BME280;47553;52.428;13.382;2022-07-06T09:55:45;101608.63;;;19.69;36.32
61645;BME280;47553;52.428;13.382;2022-07-06T09:57:53;101594.66;;;20.28;35.92
61645;BME280;47553;52.428;13.382;2022-07-06T09:59:54;101600.22;;;20.89;35.33
61645;BME280;47553;52.428;13.382;2022-07-06T10:01:57;101594.59;;;20.81;35.12
61645;BME280;47553;52.428;13.382;2022-07-06T10:04:00;101599.78;;;20.63;35.94
61645;BME280;47553;52.428;13.382;2022-07-06T10:06:02;101603.78;;;20.27;36.70
61645;BME280;47553;52.428;13.382;2022-07-06T10:08:05;101599.22;;;19.96;37.93
61645;BME280;47553;52.428;13.382;2022-07-06T10:10:08;101610.34;;;19.70;39.03
61645;BME280;47553;52.428;13.382;2022-07-06T10:12:12;101604.31;;;19.67;39.19
61645;BME280;47553;52.428;13.382;2022-07-06T10:14:18;101610.25;;;19.38;39.73
61645;BME280;47553;52.428;13.382;2022-07-06T10:16:22;101606.59;;;19.39;39.00
61645;BME280;47553;52.428;13.382;2022-07-06T10:18:24;101603.78;;;19.41;38.71
61645;BME280;47553;52.428;13.382;2022-07-06T10:20:32;101610.84;;;19.64;38.64
61645;BME280;47553;52.428;13.382;2022-07-06T10:22:34;101609.09;;;19.74;37.88
61645;BME280;47553;52.428;13.382;2022-07-06T10:24:36;101610.47;;;19.69;37.60
61645;BME280;47553;52.428;13.382;2022-07-06T10:26:39;101610.72;;;19.66;38.33
61645;BME280;47553;52.428;13.382;2022-07-06T10:28:41;101616.53;;;19.61;39.51
61645;BME280;47553;52.428;13.382;2022-07-06T10:30:43;101607.63;;;20.13;40.56
61645;BME280;47553;52.428;13.382;2022-07-06T10:32:47;101612.63;;;20.29;42.52
61645;BME280;47553;52.428;13.382;2022-07-06T10:34:49;101607.19;;;20.61;40.64